sensor_id;sensor_type;location;lat;lon;timestamp;temperature;humidity
26541;DHT22;14206;50.202;10.948;2023-08-30T00:01:38;12.90;96.60
26541;DHT22;14206;50.202;10.948;2023-08-30T00:04:05;12.90;96.60
26541;DHT22;14206;50.202;10.948;2023-08-30T00:06:32;12.90;96.60
26541;DHT22;14206;50.202;10.948;2023-08-30T00:08:59;12.80;96.60
26541;DHT22;14206;50.202;10.948;2023-08-30T00:11:26;12.70;96.60
26541;DHT22;14206;50.202;10.948;2023-08-30T00:13:52;12.60;96.60
26541;DHT22;14206;50.202;10.948;2023-08-30T00:16:19;12.60;96.60
26541;DHT22;14206;50.202;10.948;2023-08-30T00:18:46;12.60;96.60
26541;DHT22;14206;50.202;10.948;2023-08-30T00:21:13;12.50;96.60
26541;DHT22;14206;50.202;10.948;2023-08-30T00:23:42;12.50;96.60
26541;DHT22;14206;50.202;10.948;2023-08-30T00:26:09;12.50;96.60
26541;DHT22;14206;50.202;10.948;2023-08-30T00:28:36;12.50;96.60
26541;DHT22;14206;50.202;10.948;2023-08-30T00:31:03;12.50;96.60
26541;DHT22;14206;50.202;10.948;2023-08-30T00:33:30;12.40;96.60
26541;DHT22;14206;50.202;10.948;2023-08-30T00:35:58;12.40;96.60
26541;DHT22;14206;50.202;10.948;2023-08-30T00:38:26;12.40;96.60
26541;DHT22;14206;50.202;10.948;2023-08-30T00:40:54;12.40;96.60
26541;DHT22;14206;50.202;10.948;2023-08-30T00:43:21;12.40;96.60
26541;DHT22;14206;50.202;10.948;2023-08-30T00:45:48;12.30;96.60
26541;DHT22;14206;50.202;10.948;2023-08-30T00:48:17;12.30;96.60
26541;DHT22;14206;50.202;10.948;2023-08-30T00:50:46;12.20;96.60
26541;DHT22;14206;50.202;10.948;2023-08-30T00:53:14;12.20;96.60
26541;DHT22;14206;50.202;10.948;2023-08-30T00:55:42;12.20;96.60
26541;DHT22;14206;50.202;10.948;2023-08-30T00:58:09;12.20;96.60
26541;DHT22;14206;50.202;10.948;2023-08-30T01:00:39;12.20;96.60
26541;DHT22;14206;50.202;10.948;2023-08-30T01:03:06;12.20;96.60
26541;DHT22;14206;50.202;10.948;2023-08-30T01:05:36;12.20;96.60
26541;DHT22;14206;50.202;10.948;2023-08-30T01:08:03;12.20;96.60
26541;DHT22;14206;50.202;10.948;2023-08-30T01:10:47;12.20;96.60
26541;DHT22;14206;50.202;10.948;2023-08-30T01:13:19;12.10;96.60
26541;DHT22;14206;50.202;10.948;2023-08-30T01:15:51;12.10;96.60
26541;DHT22;14206;50.202;10.948;2023-08-30T01:18:22;12.10;96.60
26541;DHT22;14206;50.202;10.948;2023-08-30T01:20:50;12.10;96.60
26541;DHT22;14206;50.202;10.948;2023-08-30T01:29:11;12.20;96.60
26541;DHT22;14206;50.202;10.948;2023-08-30T01:31:40;12.20;96.60
26541;DHT22;14206;50.202;10.948;2023-08-30T01:34:08;12.20;96.60
26541;DHT22;14206;50.202;10.948;2023-08-30T01:36:37;12.20;96.60
26541;DHT22;14206;50.202;10.948;2023-08-30T01:39:04;12.20;96.60
26541;DHT22;14206;50.202;10.948;2023-08-30T01:41:32;12.20;96.60
26541;DHT22;14206;50.202;10.948;2023-08-30T01:44:00;12.20;96.60
26541;DHT22;14206;50.202;10.948;2023-08-30T01:46:32;12.10;96.60
26541;DHT22;14206;50.202;10.948;2023-08-30T01:49:13;12.20;96.60
26541;DHT22;14206;50.202;10.948;2023-08-30T01:51:41;12.10;96.60
26541;DHT22;14206;50.202;10.948;2023-08-30T01:54:09;12.00;96.60
26541;DHT22;14206;50.202;10.948;2023-08-30T01:56:36;11.90;96.60
26541;DHT22;14206;50.202;10.948;2023-08-30T01:59:03;11.90;96.60
26541;DHT22;14206;50.202;10.948;2023-08-30T02:01:30;11.90;96.60
26541;DHT22;14206;50.202;10.948;2023-08-30T02:03:59;11.90;96.60
26541;DHT22;14206;50.202;10.948;2023-08-30T02:06:42;12.00;96.60
26541;DHT22;14206;50.202;10.948;2023-08-30T02:09:23;12.00;96.60
26541;DHT22;14206;50.202;10.948;2023-08-30T02:11:52;12.00;96.60
26541;DHT22;14206;50.202;10.948;2023-08-30T02:14:21;12.10;96.60
26541;DHT22;14206;50.202;10.948;2023-08-30T02:16:49;12.10;96.60
26541;DHT22;14206;50.202;10.948;2023-08-30T02:19:16;12.10;96.60
26541;DHT22;14206;50.202;10.948;2023-08-30T02:21:48;12.10;96.60
26541;DHT22;14206;50.202;10.948;2023-08-30T02:24:17;12.10;96.60
26541;DHT22;14206;50.202;10.948;2023-08-30T02:26:44;12.00;96.60
26541;DHT22;14206;50.202;10.948;2023-08-30T02:29:12;12.00;96.60
26541;DHT22;14206;50.202;10.948;2023-08-30T02:31:40;12.00;96.60
26541;DHT22;14206;50.202;10.948;2023-08-30T02:34:07;11.90;96.60
26541;DHT22;14206;50.202;10.948;2023-08-30T02:36:36;11.90;96.60
26541;DHT22;14206;50.202;10.948;2023-08-30T02:39:03;11.90;96.60
26541;DHT22;14206;50.202;10.948;2023-08-30T02:41:31;11.90;96.60
26541;DHT22;14206;50.202;10.948;2023-08-30T02:43:57;11.90;96.60
26541;DHT22;14206;50.202;10.948;2023-08-30T02:46:24;11.90;96.60
26541;DHT22;14206;50.202;10.948;2023-08-30T02:48:51;11.90;96.60
26541;DHT22;14206;50.202;10.948;2023-08-30T02:51:18;11.90;96.60
26541;DHT22;14206;50.202;10.948;2023-08-30T02:53:45;11.90;96.60
26541;DHT22;14206;50.202;10.948;2023-08-30T02:56:12;11.90;96.60
26541;DHT22;14206;50.202;10.948;2023-08-30T02:58:38;11.90;96.60
26541;DHT22;14206;50.202;10.948;2023-08-30T03:01:05;11.90;96.60
26541;DHT22;14206;50.202;10.948;2023-08-30T03:03:33;11.90;96.60
26541;DHT22;14206;50.202;10.948;2023-08-30T03:06:01;11.90;96.60
26541;DHT22;14206;50.202;10.948;2023-08-30T03:08:29;11.90;96.60
26541;DHT22;14206;50.202;10.948;2023-08-30T03:11:06;11.90;96.60
26541;DHT22;14206;50.202;10.948;2023-08-30T03:13:34;11.90;96.60
26541;DHT22;14206;50.202;10.948;2023-08-30T03:16:15;11.90;96.60
26541;DHT22;14206;50.202;10.948;2023-08-30T03:18:43;12.00;96.60
26541;DHT22;14206;50.202;10.948;2023-08-30T03:21:10;12.00;96.60
26541;DHT22;14206;50.202;10.948;2023-08-30T03:23:38;12.10;96.60
26541;DHT22;14206;50.202;10.948;2023-08-30T03:26:13;12.10;96.60
26541;DHT22;14206;50.202;10.948;2023-08-30T03:28:42;12.20;96.60
26541;DHT22;14206;50.202;10.948;2023-08-30T03:31:14;12.20;96.60
26541;DHT22;14206;50.202;10.948;2023-08-30T03:33:41;12.20;96.60
26541;DHT22;14206;50.202;10.948;2023-08-30T03:36:13;12.20;96.60
26541;DHT22;14206;50.202;10.948;2023-08-30T03:38:41;12.20;96.60
26541;DHT22;14206;50.202;10.948;2023-08-30T03:41:09;12.30;96.60
26541;DHT22;14206;50.202;10.948;2023-08-30T03:43:37;12.30;96.60
26541;DHT22;14206;50.202;10.948;2023-08-30T03:46:04;12.30;96.60
26541;DHT22;14206;50.202;10.948;2023-08-30T03:48:31;12.40;96.60
26541;DHT22;14206;50.202;10.948;2023-08-30T03:50:59;12.50;96.60
26541;DHT22;14206;50.202;10.948;2023-08-30T03:53:26;12.50;96.60
26541;DHT22;14206;50.202;10.948;2023-08-30T03:55:53;12.60;96.60
26541;DHT22;14206;50.202;10.948;2023-08-30T03:58:20;12.60;96.60
26541;DHT22;14206;50.202;10.948;2023-08-30T04:00:49;12.70;96.60
26541;DHT22;14206;50.202;10.948;2023-08-30T04:03:16;12.70;96.60
26541;DHT22;14206;50.202;10.948;2023-08-30T04:05:43;12.70;96.60
26541;DHT22;14206;50.202;10.948;2023-08-30T04:08:10;12.80;96.60
26541;DHT22;14206;50.202;10.948;2023-08-30T04:10:41;12.80;96.60
26541;DHT22;14206;50.202;10.948;2023-08-30T04:13:09;12.80;96.60
26541;DHT22;14206;50.202;10.948;2023-08-30T04:15:37;12.80;96.60
26541;DHT22;14206;50.202;10.948;2023-08-30T04:18:06;12.80;96.60
26541;DHT22;14206;50.202;10.948;2023-08-30T04:20:34;12.80;96.60
26541;DHT22;14206;50.202;10.948;2023-08-30T04:23:02;12.80;96.60
26541;DHT22;14206;50.202;10.948;2023-08-30T04:25:33;12.70;96.60
26541;DHT22;14206;50.202;10.948;2023-08-30T04:28:01;12.70;96.60
26541;DHT22;14206;50.202;10.948;2023-08-30T04:30:28;12.70;96.60
26541;DHT22;14206;50.202;10.948;2023-08-30T04:32:55;12.80;96.60
26541;DHT22;14206;50.202;10.948;2023-08-30T04:35:22;12.70;96.60
26541;DHT22;14206;50.202;10.948;2023-08-30T04:37:49;12.70;96.60
26541;DHT22;14206;50.202;10.948;2023-08-30T04:40:16;12.80;96.60
26541;DHT22;14206;50.202;10.948;2023-08-30T04:42:43;12.80;96.60
26541;DHT22;14206;50.202;10.948;2023-08-30T04:45:10;12.80;96.60
26541;DHT22;14206;50.202;10.948;2023-08-30T04:47:37;12.70;96.60
26541;DHT22;14206;50.202;10.948;2023-08-30T04:50:05;12.80;96.60
26541;DHT22;14206;50.202;10.948;2023-08-30T04:52:33;12.80;96.60
26541;DHT22;14206;50.202;10.948;2023-08-30T04:55:00;12.80;96.60
26541;DHT22;14206;50.202;10.948;2023-08-30T04:57:27;12.70;96.60
26541;DHT22;14206;50.202;10.948;2023-08-30T04:59:55;12.60;96.60
26541;DHT22;14206;50.202;10.948;2023-08-30T05:02:22;12.60;96.60
26541;DHT22;14206;50.202;10.948;2023-08-30T05:04:55;12.50;96.60
26541;DHT22;14206;50.202;10.948;2023-08-30T05:07:22;12.50;96.60
26541;DHT22;14206;50.202;10.948;2023-08-30T05:09:49;12.50;96.60
26541;DHT22;14206;50.202;10.948;2023-08-30T05:12:16;12.50;96.60
26541;DHT22;14206;50.202;10.948;2023-08-30T05:14:43;12.50;96.60
26541;DHT22;14206;50.202;10.948;2023-08-30T05:17:10;12.60;96.60
26541;DHT22;14206;50.202;10.948;2023-08-30T05:19:37;12.60;96.60
26541;DHT22;14206;50.202;10.948;2023-08-30T05:22:04;12.70;96.60
26541;DHT22;14206;50.202;10.948;2023-08-30T05:24:31;12.80;96.60
26541;DHT22;14206;50.202;10.948;2023-08-30T05:26:58;12.90;96.60
26541;DHT22;14206;50.202;10.948;2023-08-30T05:29:26;13.00;96.60
26541;DHT22;14206;50.202;10.948;2023-08-30T05:31:52;13.10;96.60
26541;DHT22;14206;50.202;10.948;2023-08-30T05:34:24;13.10;96.60
26541;DHT22;14206;50.202;10.948;2023-08-30T05:37:21;13.20;96.60
26541;DHT22;14206;50.202;10.948;2023-08-30T05:40:17;13.30;96.60
26541;DHT22;14206;50.202;10.948;2023-08-30T05:42:44;13.30;96.60
26541;DHT22;14206;50.202;10.948;2023-08-30T05:45:12;13.40;96.60
26541;DHT22;14206;50.202;10.948;2023-08-30T05:47:40;13.50;96.60
26541;DHT22;14206;50.202;10.948;2023-08-30T05:50:07;13.50;96.60
26541;DHT22;14206;50.202;10.948;2023-08-30T05:52:35;13.50;96.60
26541;DHT22;14206;50.202;10.948;2023-08-30T05:55:01;13.50;96.60
26541;DHT22;14206;50.202;10.948;2023-08-30T05:57:29;13.50;96.60
26541;DHT22;14206;50.202;10.948;2023-08-30T06:00:01;13.60;96.60
26541;DHT22;14206;50.202;10.948;2023-08-30T06:02:28;13.60;96.60
26541;DHT22;14206;50.202;10.948;2023-08-30T06:04:55;13.60;96.60
26541;DHT22;14206;50.202;10.948;2023-08-30T06:07:22;13.70;96.60
26541;DHT22;14206;50.202;10.948;2023-08-30T06:09:48;13.80;96.60
26541;DHT22;14206;50.202;10.948;2023-08-30T06:12:16;13.90;96.60
26541;DHT22;14206;50.202;10.948;2023-08-30T06:14:43;14.00;96.60
26541;DHT22;14206;50.202;10.948;2023-08-30T06:17:16;14.00;96.60
26541;DHT22;14206;50.202;10.948;2023-08-30T06:19:44;14.10;96.60
26541;DHT22;14206;50.202;10.948;2023-08-30T06:22:11;14.20;96.60
26541;DHT22;14206;50.202;10.948;2023-08-30T06:24:38;14.20;96.60
26541;DHT22;14206;50.202;10.948;2023-08-30T06:27:06;14.30;96.60
26541;DHT22;14206;50.202;10.948;2023-08-30T06:29:32;14.30;96.60
26541;DHT22;14206;50.202;10.948;2023-08-30T06:32:00;14.40;96.60
26541;DHT22;14206;50.202;10.948;2023-08-30T06:34:27;14.40;96.60
26541;DHT22;14206;50.202;10.948;2023-08-30T06:36:53;14.50;96.60
26541;DHT22;14206;50.202;10.948;2023-08-30T06:39:20;14.60;96.60
26541;DHT22;14206;50.202;10.948;2023-08-30T06:41:48;14.60;96.60
26541;DHT22;14206;50.202;10.948;2023-08-30T06:44:15;14.60;96.60
26541;DHT22;14206;50.202;10.948;2023-08-30T06:46:42;14.70;96.60
26541;DHT22;14206;50.202;10.948;2023-08-30T06:49:09;14.80;96.60
26541;DHT22;14206;50.202;10.948;2023-08-30T06:51:36;14.80;96.60
26541;DHT22;14206;50.202;10.948;2023-08-30T06:54:03;14.80;96.60
26541;DHT22;14206;50.202;10.948;2023-08-30T06:56:30;14.90;96.60
26541;DHT22;14206;50.202;10.948;2023-08-30T06:58:56;15.00;96.60
26541;DHT22;14206;50.202;10.948;2023-08-30T07:01:23;15.00;96.60
26541;DHT22;14206;50.202;10.948;2023-08-30T07:03:50;15.10;96.60
26541;DHT22;14206;50.202;10.948;2023-08-30T07:06:18;15.30;96.60
26541;DHT22;14206;50.202;10.948;2023-08-30T07:08:45;15.40;96.60
26541;DHT22;14206;50.202;10.948;2023-08-30T07:11:12;15.60;96.60
26541;DHT22;14206;50.202;10.948;2023-08-30T07:13:58;15.60;96.60
26541;DHT22;14206;50.202;10.948;2023-08-30T07:16:24;15.70;96.60
26541;DHT22;14206;50.202;10.948;2023-08-30T07:18:51;15.70;96.60
26541;DHT22;14206;50.202;10.948;2023-08-30T07:21:18;15.70;96.60
26541;DHT22;14206;50.202;10.948;2023-08-30T07:23:45;15.70;96.60
26541;DHT22;14206;50.202;10.948;2023-08-30T07:26:12;15.70;96.60
26541;DHT22;14206;50.202;10.948;2023-08-30T07:28:39;15.70;96.60
26541;DHT22;14206;50.202;10.948;2023-08-30T07:31:06;15.80;96.60
26541;DHT22;14206;50.202;10.948;2023-08-30T07:33:33;15.80;96.60
26541;DHT22;14206;50.202;10.948;2023-08-30T07:36:00;15.90;96.60
26541;DHT22;14206;50.202;10.948;2023-08-30T07:38:27;15.90;96.60
26541;DHT22;14206;50.202;10.948;2023-08-30T07:40:54;16.00;96.60
26541;DHT22;14206;50.202;10.948;2023-08-30T07:43:20;16.10;96.60
26541;DHT22;14206;50.202;10.948;2023-08-30T07:45:47;16.10;96.60
26541;DHT22;14206;50.202;10.948;2023-08-30T07:48:14;16.10;96.60
26541;DHT22;14206;50.202;10.948;2023-08-30T07:50:42;16.20;96.60
26541;DHT22;14206;50.202;10.948;2023-08-30T07:53:09;16.30;96.60
26541;DHT22;14206;50.202;10.948;2023-08-30T07:55:37;16.30;96.50
26541;DHT22;14206;50.202;10.948;2023-08-30T07:58:04;16.40;96.20
26541;DHT22;14206;50.202;10.948;2023-08-30T08:00:31;16.40;95.60
26541;DHT22;14206;50.202;10.948;2023-08-30T08:02:58;16.40;95.60
26541;DHT22;14206;50.202;10.948;2023-08-30T08:05:25;16.50;95.50
26541;DHT22;14206;50.202;10.948;2023-08-30T08:07:53;16.60;96.30
26541;DHT22;14206;50.202;10.948;2023-08-30T08:10:20;16.70;95.30
26541;DHT22;14206;50.202;10.948;2023-08-30T08:12:47;16.60;94.60
26541;DHT22;14206;50.202;10.948;2023-08-30T08:15:14;16.70;94.50
26541;DHT22;14206;50.202;10.948;2023-08-30T08:17:41;16.70;94.20
26541;DHT22;14206;50.202;10.948;2023-08-30T08:20:08;16.80;94.00
26541;DHT22;14206;50.202;10.948;2023-08-30T08:22:35;16.80;93.50
26541;DHT22;14206;50.202;10.948;2023-08-30T08:25:02;16.70;94.00
26541;DHT22;14206;50.202;10.948;2023-08-30T08:27:29;16.80;94.00
26541;DHT22;14206;50.202;10.948;2023-08-30T08:29:57;16.70;93.60
26541;DHT22;14206;50.202;10.948;2023-08-30T08:32:24;16.60;93.80
26541;DHT22;14206;50.202;10.948;2023-08-30T08:34:51;16.60;94.80
26541;DHT22;14206;50.202;10.948;2023-08-30T08:37:17;16.60;94.90
26541;DHT22;14206;50.202;10.948;2023-08-30T08:39:47;16.60;96.20
26541;DHT22;14206;50.202;10.948;2023-08-30T08:42:19;16.70;94.30
26541;DHT22;14206;50.202;10.948;2023-08-30T08:44:47;16.80;95.30
26541;DHT22;14206;50.202;10.948;2023-08-30T08:47:17;16.90;95.00
26541;DHT22;14206;50.202;10.948;2023-08-30T08:49:46;17.00;94.80
26541;DHT22;14206;50.202;10.948;2023-08-30T08:52:14;17.20;93.90
26541;DHT22;14206;50.202;10.948;2023-08-30T08:54:57;17.20;93.00
26541;DHT22;14206;50.202;10.948;2023-08-30T08:57:26;17.20;93.40
26541;DHT22;14206;50.202;10.948;2023-08-30T08:59:56;17.40;92.50
26541;DHT22;14206;50.202;10.948;2023-08-30T09:02:23;17.40;92.90
26541;DHT22;14206;50.202;10.948;2023-08-30T09:04:52;17.40;93.00
26541;DHT22;14206;50.202;10.948;2023-08-30T09:07:19;17.40;92.80
26541;DHT22;14206;50.202;10.948;2023-08-30T09:09:47;17.40;93.50
26541;DHT22;14206;50.202;10.948;2023-08-30T09:12:14;17.40;93.40
26541;DHT22;14206;50.202;10.948;2023-08-30T09:14:41;17.50;93.80
26541;DHT22;14206;50.202;10.948;2023-08-30T09:17:08;17.60;92.90
26541;DHT22;14206;50.202;10.948;2023-08-30T09:19:35;17.70;92.50
26541;DHT22;14206;50.202;10.948;2023-08-30T09:22:02;17.70;92.90
26541;DHT22;14206;50.202;10.948;2023-08-30T09:24:38;17.60;92.90
26541;DHT22;14206;50.202;10.948;2023-08-30T09:27:06;17.40;93.00
26541;DHT22;14206;50.202;10.948;2023-08-30T09:29:33;17.40;93.70
26541;DHT22;14206;50.202;10.948;2023-08-30T09:32:01;17.40;94.00
26541;DHT22;14206;50.202;10.948;2023-08-30T09:34:27;17.40;93.50
26541;DHT22;14206;50.202;10.948;2023-08-30T09:36:55;17.60;92.60
26541;DHT22;14206;50.202;10.948;2023-08-30T09:39:22;17.70;92.20
26541;DHT22;14206;50.202;10.948;2023-08-30T09:41:50;17.70;92.20
26541;DHT22;14206;50.202;10.948;2023-08-30T09:44:21;17.80;93.40
26541;DHT22;14206;50.202;10.948;2023-08-30T09:46:55;17.90;93.40
26541;DHT22;14206;50.202;10.948;2023-08-30T09:49:23;17.80;92.90
26541;DHT22;14206;50.202;10.948;2023-08-30T09:51:53;17.70;92.90
26541;DHT22;14206;50.202;10.948;2023-08-30T09:54:22;17.70;92.80
26541;DHT22;14206;50.202;10.948;2023-08-30T09:57:04;17.80;92.40
26541;DHT22;14206;50.202;10.948;2023-08-30T09:59:32;17.90;92.90
26541;DHT22;14206;50.202;10.948;2023-08-30T10:02:00;18.10;92.60
26541;DHT22;14206;50.202;10.948;2023-08-30T10:04:28;18.40;92.00
26541;DHT22;14206;50.202;10.948;2023-08-30T10:06:56;18.40;91.00
26541;DHT22;14206;50.202;10.948;2023-08-30T10:09:33;18.50;91.10
26541;DHT22;14206;50.202;10.948;2023-08-30T10:12:01;19.60;91.30
26541;DHT22;14206;50.202;10.948;2023-08-30T10:14:30;21.10;87.00
26541;DHT22;14206;50.202;10.948;2023-08-30T10:17:03;22.80;84.40
26541;DHT22;14206;50.202;10.948;2023-08-30T10:19:31;24.30;78.80
26541;DHT22;14206;50.202;10.948;2023-08-30T10:22:06;24.60;74.30
26541;DHT22;14206;50.202;10.948;2023-08-30T10:24:49;24.40;74.00
26541;DHT22;14206;50.202;10.948;2023-08-30T10:27:39;24.00;74.70
26541;DHT22;14206;50.202;10.948;2023-08-30T10:30:09;23.50;75.20
26541;DHT22;14206;50.202;10.948;2023-08-30T10:32:40;23.40;76.30
26541;DHT22;14206;50.202;10.948;2023-08-30T10:35:11;23.50;76.20
26541;DHT22;14206;50.202;10.948;2023-08-30T10:37:39;24.10;74.40
26541;DHT22;14206;50.202;10.948;2023-08-30T10:40:08;24.60;72.90
26541;DHT22;14206;50.202;10.948;2023-08-30T10:42:35;24.80;72.90
26541;DHT22;14206;50.202;10.948;2023-08-30T10:45:06;25.00;72.50
26541;DHT22;14206;50.202;10.948;2023-08-30T10:47:40;25.00;71.60
26541;DHT22;14206;50.202;10.948;2023-08-30T10:50:12;25.00;71.40
26541;DHT22;14206;50.202;10.948;2023-08-30T10:52:39;25.00;70.70
26541;DHT22;14206;50.202;10.948;2023-08-30T10:55:11;25.10;70.50
26541;DHT22;14206;50.202;10.948;2023-08-30T10:57:42;25.10;70.20
26541;DHT22;14206;50.202;10.948;2023-08-30T11:00:19;24.90;70.60
26541;DHT22;14206;50.202;10.948;2023-08-30T11:02:51;24.70;71.10
26541;DHT22;14206;50.202;10.948;2023-08-30T11:05:21;24.80;70.60
26541;DHT22;14206;50.202;10.948;2023-08-30T11:07:50;24.50;70.90
26541;DHT22;14206;50.202;10.948;2023-08-30T11:10:18;24.20;71.80
26541;DHT22;14206;50.202;10.948;2023-08-30T11:12:46;24.00;72.30
26541;DHT22;14206;50.202;10.948;2023-08-30T11:15:16;24.10;73.30
26541;DHT22;14206;50.202;10.948;2023-08-30T11:21:17;24.20;72.00
26541;DHT22;14206;50.202;10.948;2023-08-30T11:23:44;24.20;73.80
26541;DHT22;14206;50.202;10.948;2023-08-30T11:26:11;24.20;71.60
26541;DHT22;14206;50.202;10.948;2023-08-30T11:28:42;24.30;71.20
26541;DHT22;14206;50.202;10.948;2023-08-30T11:31:19;24.70;72.50
26541;DHT22;14206;50.202;10.948;2023-08-30T11:33:50;25.30;73.10
26541;DHT22;14206;50.202;10.948;2023-08-30T11:36:18;26.40;70.00
26541;DHT22;14206;50.202;10.948;2023-08-30T11:38:46;27.30;66.80
26541;DHT22;14206;50.202;10.948;2023-08-30T11:41:13;27.80;65.60
26541;DHT22;14206;50.202;10.948;2023-08-30T11:43:40;28.40;63.50
26541;DHT22;14206;50.202;10.948;2023-08-30T11:46:10;29.10;63.40
26541;DHT22;14206;50.202;10.948;2023-08-30T11:48:42;29.60;60.40
26541;DHT22;14206;50.202;10.948;2023-08-30T11:51:09;29.80;60.10
26541;DHT22;14206;50.202;10.948;2023-08-30T11:53:38;30.10;60.90
26541;DHT22;14206;50.202;10.948;2023-08-30T11:56:07;30.10;59.10
26541;DHT22;14206;50.202;10.948;2023-08-30T11:58:35;29.60;60.40
26541;DHT22;14206;50.202;10.948;2023-08-30T12:01:02;29.10;60.90
26541;DHT22;14206;50.202;10.948;2023-08-30T12:03:30;28.50;61.20
26541;DHT22;14206;50.202;10.948;2023-08-30T12:05:58;27.90;61.20
26541;DHT22;14206;50.202;10.948;2023-08-30T12:08:27;27.40;62.10
26541;DHT22;14206;50.202;10.948;2023-08-30T12:10:55;27.00;65.10
26541;DHT22;14206;50.202;10.948;2023-08-30T12:13:26;26.80;66.70
26541;DHT22;14206;50.202;10.948;2023-08-30T12:15:55;26.80;64.90
26541;DHT22;14206;50.202;10.948;2023-08-30T12:18:24;26.60;65.30
26541;DHT22;14206;50.202;10.948;2023-08-30T12:20:58;26.60;64.60
26541;DHT22;14206;50.202;10.948;2023-08-30T12:23:26;26.40;65.20
26541;DHT22;14206;50.202;10.948;2023-08-30T12:26:01;26.00;66.60
26541;DHT22;14206;50.202;10.948;2023-08-30T12:28:28;25.70;66.80
26541;DHT22;14206;50.202;10.948;2023-08-30T12:30:56;25.50;68.10
26541;DHT22;14206;50.202;10.948;2023-08-30T12:33:24;25.40;66.80
26541;DHT22;14206;50.202;10.948;2023-08-30T12:35:55;25.30;65.90
26541;DHT22;14206;50.202;10.948;2023-08-30T12:38:23;25.30;66.10
26541;DHT22;14206;50.202;10.948;2023-08-30T12:40:52;25.20;66.20
26541;DHT22;14206;50.202;10.948;2023-08-30T12:43:20;25.10;68.80
26541;DHT22;14206;50.202;10.948;2023-08-30T12:45:47;24.90;66.90
26541;DHT22;14206;50.202;10.948;2023-08-30T12:48:17;24.70;70.00
26541;DHT22;14206;50.202;10.948;2023-08-30T12:50:45;24.60;69.30
26541;DHT22;14206;50.202;10.948;2023-08-30T12:53:12;24.50;70.30
26541;DHT22;14206;50.202;10.948;2023-08-30T12:55:39;24.20;67.90
26541;DHT22;14206;50.202;10.948;2023-08-30T12:58:07;23.90;68.30
26541;DHT22;14206;50.202;10.948;2023-08-30T13:00:35;23.70;69.10
26541;DHT22;14206;50.202;10.948;2023-08-30T13:03:04;23.50;71.40
26541;DHT22;14206;50.202;10.948;2023-08-30T13:05:32;23.30;72.50
26541;DHT22;14206;50.202;10.948;2023-08-30T13:08:00;23.00;72.70
26541;DHT22;14206;50.202;10.948;2023-08-30T13:10:27;22.80;72.90
26541;DHT22;14206;50.202;10.948;2023-08-30T13:12:54;22.40;78.00
26541;DHT22;14206;50.202;10.948;2023-08-30T13:15:21;22.10;80.30
26541;DHT22;14206;50.202;10.948;2023-08-30T13:17:47;21.90;81.10
26541;DHT22;14206;50.202;10.948;2023-08-30T13:20:14;21.50;82.70
26541;DHT22;14206;50.202;10.948;2023-08-30T13:22:41;21.30;84.30
26541;DHT22;14206;50.202;10.948;2023-08-30T13:25:08;21.00;83.20
26541;DHT22;14206;50.202;10.948;2023-08-30T13:27:35;20.90;85.50
26541;DHT22;14206;50.202;10.948;2023-08-30T13:30:03;20.70;83.40
26541;DHT22;14206;50.202;10.948;2023-08-30T13:32:30;20.50;84.10
26541;DHT22;14206;50.202;10.948;2023-08-30T13:34:57;20.20;85.00
26541;DHT22;14206;50.202;10.948;2023-08-30T13:37:24;20.10;86.90
26541;DHT22;14206;50.202;10.948;2023-08-30T13:39:52;20.10;87.40
26541;DHT22;14206;50.202;10.948;2023-08-30T13:42:20;20.10;88.60
26541;DHT22;14206;50.202;10.948;2023-08-30T13:44:50;20.20;88.40
26541;DHT22;14206;50.202;10.948;2023-08-30T13:47:17;20.30;88.50
26541;DHT22;14206;50.202;10.948;2023-08-30T13:49:45;20.50;88.60
26541;DHT22;14206;50.202;10.948;2023-08-30T13:52:12;20.60;88.10
26541;DHT22;14206;50.202;10.948;2023-08-30T13:54:39;20.70;87.10
26541;DHT22;14206;50.202;10.948;2023-08-30T13:57:06;20.70;87.40
26541;DHT22;14206;50.202;10.948;2023-08-30T13:59:33;20.70;86.20
26541;DHT22;14206;50.202;10.948;2023-08-30T14:02:05;20.80;85.20
26541;DHT22;14206;50.202;10.948;2023-08-30T14:04:31;20.90;86.90
26541;DHT22;14206;50.202;10.948;2023-08-30T14:07:04;21.00;86.40
26541;DHT22;14206;50.202;10.948;2023-08-30T14:09:30;20.90;85.00
26541;DHT22;14206;50.202;10.948;2023-08-30T14:11:57;20.80;85.30
26541;DHT22;14206;50.202;10.948;2023-08-30T14:14:24;20.80;85.20
26541;DHT22;14206;50.202;10.948;2023-08-30T14:16:51;20.80;85.50
26541;DHT22;14206;50.202;10.948;2023-08-30T14:19:18;20.70;83.90
26541;DHT22;14206;50.202;10.948;2023-08-30T14:21:45;20.60;85.10
26541;DHT22;14206;50.202;10.948;2023-08-30T14:24:12;20.60;86.00
26541;DHT22;14206;50.202;10.948;2023-08-30T14:26:39;20.70;84.90
26541;DHT22;14206;50.202;10.948;2023-08-30T14:29:06;20.80;82.50
26541;DHT22;14206;50.202;10.948;2023-08-30T14:31:33;20.80;82.10
26541;DHT22;14206;50.202;10.948;2023-08-30T14:34:00;20.90;82.00
26541;DHT22;14206;50.202;10.948;2023-08-30T14:36:27;20.90;82.80
26541;DHT22;14206;50.202;10.948;2023-08-30T14:38:55;20.80;82.10
26541;DHT22;14206;50.202;10.948;2023-08-30T14:41:24;20.80;82.20
26541;DHT22;14206;50.202;10.948;2023-08-30T14:43:52;20.80;82.30
26541;DHT22;14206;50.202;10.948;2023-08-30T14:46:20;20.80;81.20
26541;DHT22;14206;50.202;10.948;2023-08-30T14:48:50;20.80;81.60
26541;DHT22;14206;50.202;10.948;2023-08-30T14:51:27;20.70;81.80
26541;DHT22;14206;50.202;10.948;2023-08-30T14:53:56;20.70;82.70
26541;DHT22;14206;50.202;10.948;2023-08-30T14:56:24;20.80;82.40
26541;DHT22;14206;50.202;10.948;2023-08-30T14:58:52;20.80;83.70
26541;DHT22;14206;50.202;10.948;2023-08-30T15:01:20;20.90;83.90
26541;DHT22;14206;50.202;10.948;2023-08-30T15:03:48;20.90;83.20
26541;DHT22;14206;50.202;10.948;2023-08-30T15:06:16;21.00;83.30
26541;DHT22;14206;50.202;10.948;2023-08-30T15:08:43;20.90;83.20
26541;DHT22;14206;50.202;10.948;2023-08-30T15:11:11;20.90;83.10
26541;DHT22;14206;50.202;10.948;2023-08-30T15:13:39;20.90;82.60
26541;DHT22;14206;50.202;10.948;2023-08-30T15:16:06;20.90;82.00
26541;DHT22;14206;50.202;10.948;2023-08-30T15:18:33;20.80;81.50
26541;DHT22;14206;50.202;10.948;2023-08-30T15:21:00;20.80;81.70
26541;DHT22;14206;50.202;10.948;2023-08-30T15:23:28;20.70;81.40
26541;DHT22;14206;50.202;10.948;2023-08-30T15:25:55;20.70;82.10
26541;DHT22;14206;50.202;10.948;2023-08-30T15:28:22;20.70;82.90
26541;DHT22;14206;50.202;10.948;2023-08-30T15:30:49;20.60;83.00
26541;DHT22;14206;50.202;10.948;2023-08-30T15:33:17;20.60;82.80